Meteo Giornale » Osservazioni meteo Italia » Rimini

ore: 11:50 - Osservazioni Meteo Rimini
Lat. 44° 2' N Lon. 12° 37' E Alt. 12 metri s.l.m.

nuvoloso_temporali Europe/Rome

21 °C

Temporale con Pioggia

Temp. 24 Ore

19 °C

28 °C

Nord

5.5 Km/h

Dew point 18 °C

Umidità 82 %

Visibilità  4 Km

Il sole sorge alle ore 06:00

Il sole tramonta alle ore 20:30

Data e Ora Cielo e Fenomeni T °C DP °C Um. % Pres. hPa Vis. km Vento km/h
Oggi h: 11:50 nuvoloso_temporali Temporale con Pioggia 21 18 82 1004 4 N 5.5
Oggi h: 11:20 nuvoloso_piovaschi Rovescio di Pioggia 21 18 82 1004 10 N 5.5
Oggi h: 10:50 coperto_pioggia Pioggia Debole 22 17 73 1004 10 N 7.4
Oggi h: 10:20 nuvoloso Nuvoloso 23 16 64 1004 10 NE 7.4
Oggi h: 09:50 nuvoloso Nuvoloso 23 16 64 1004 10 N 5.5
Oggi h: 09:20 nuvoloso Nuvoloso 22 16 68 1004 10 N 7.4
Oggi h: 08:50 nuvoloso Nuvoloso 21 16 73 1004 10 N 3.7
Oggi h: 07:50 poco_nuvoloso Poco Nuvoloso 21 16 73 1004 10 N 5.5
Oggi h: 07:20 molto_nuvoloso Molto Nuvoloso 20 15 72 1004 10 N 3.7
Oggi h: 06:50 molto_nuvoloso Molto Nuvoloso 19 16 82 1003 10 N 3.7
Oggi h: 06:20 nuvoloso Nuvoloso 19 15 77 1003 10 N 3.7
Oggi h: 05:50 molto_nuvoloso Molto Nuvoloso 19 16 82 1003 10 N 1.8
Oggi h: 05:20 molto_nuvoloso Molto Nuvoloso 19 16 82 1003 10 O/SO 9.3
Oggi h: 04:50 molto_nuvoloso Molto Nuvoloso 19 16 82 1003 10 O 14.8
Oggi h: 04:20 molto_nuvoloso Molto Nuvoloso 20 16 77 1003 10 O 11.1
Oggi h: 03:50 sereno Sereno 21 15 68 1003 10 O 13
Oggi h: 03:20 sereno Sereno 21 14 64 1002 10 N 5.5
Oggi h: 02:50 sereno Sereno 21 14 64 1002 10 S 9.3
Oggi h: 02:20 sereno Sereno 21 15 68 1002 10 N 3.7
Oggi h: 01:50 sereno Sereno 21 16 73 1002 10 N 5.5
Oggi h: 01:20 sereno Sereno 22 16 68 1002 10 S/SO 9.3
Oggi h: 00:50 sereno Sereno 22 17 73 1003 10 N 5.5
Oggi h: 00:20 sereno Sereno 22 18 78 1003 10 N 3.7
Ieri h: 23:50 sereno Sereno 22 19 83 1003 10 N 3.7
Ieri h: 23:20 sereno Sereno 22 19 83 1003 10 N 5.5
Ieri h: 22:50 sereno Sereno 23 19 78 1003 10 N 5.5
Ieri h: 22:20 sereno Sereno 23 20 83 1003 10 N 3.7
Ieri h: 21:50 sereno Sereno 23 20 83 1003 10 S 7.4
Ieri h: 21:20 nuvoloso Nuvoloso 24 20 78 1003 10 S 7.4
Ieri h: 20:50 molto_nuvoloso Molto Nuvoloso 24 21 83 1002 10 S 9.3
Ieri h: 20:20 molto_nuvoloso Molto Nuvoloso 25 21 78 1002 10 NE 7.4
Ieri h: 19:50 nuvoloso Nuvoloso 25 20 73 1003 10 N/NE 9.3
Ieri h: 19:20 nuvoloso Nuvoloso 25 20 73 1003 10 N 13
Ieri h: 18:50 nuvoloso Nuvoloso 25 21 78 1003 10 NO 18.5
Ieri h: 18:20 nuvoloso Nuvoloso 26 20 69 1002 10 O/SO 18.5
Ieri h: 17:50 coperto_pioggia Pioggia Debole Temporale nelle Vicinanze 24 18 69 1002 10 S/SO 27.8
Ieri h: 17:20 molto_nuvoloso Molto Nuvoloso 26 17 57 1002 10 S/SE 20.3
Ieri h: 16:50 nuvoloso Nuvoloso 28 23 74 1002 10 E/SE 20.3
Ieri h: 16:20 coperto_pioggia Pioggia Debole Temporale nelle Vicinanze 27 23 78 1002 10 E/SE 18.5
Ieri h: 15:50 nuvoloso Nuvoloso 27 21 69 1002 10 E/SE 25.9
Ieri h: 15:20 poco_nuvoloso Poco Nuvoloso 28 19 58 1003 10 E/NE 9.3
Ieri h: 14:50 nuvoloso_temporali Temporale nelle Vicinanze 28 22 69 1004 10 E 20.3
Ieri h: 14:20 nuvoloso Nuvoloso 28 22 69 1004 10 NE 13
Ieri h: 13:50 nuvoloso Nuvoloso 27 22 74 1005 10 N/NE 11.1
Ieri h: 13:20 molto_nuvoloso Molto Nuvoloso 27 22 74 1005 10 N/NE 11.1
Ieri h: 12:50 nuvoloso Nuvoloso 27 23 78 1005 10 N/NE 13